Lodge, SC (29082)

8:23 AM EST on February 09, 2016 (GMT -0500)
KQ4WH, Skunkworks | | Change Station
CLOSE
Current Station
Personal Weather Station
Location: Smoaks, SC
Elevation: 108 ft
Nearby Weather Stations
Active Advisory: Flood Warning

Elev 108 ft 33.09 °N, 80.81 °W | Updated 14 seconds ago

Partly Cloudy
Partly Cloudy
37.2 °F
Feels Like 35 °F
N
3.3
Wind Variable Wind from SW
Gusts 13.2 mph

Today
High -- | Low -- °F
--% Chance of Precip.
Yesterday
High -- | Low -- °F
Precip. -- in
Pressure 29.86 in
Visibility 10.0 miles
Clouds Clear
Windchill 35 °F
Dew Point 31 °F
Humidity 77%
Rainfall 0.00 in
Snow Depth Not available.
7:13 AM 6:03 PM
New Moon, 1% visible
METAR KRBW 091315Z AUTO 24009KT 10SM CLR 04/00 A2986 RMK AO2
Pressure 29.86 in
Visibility 10.0 miles
Clouds Clear
Windchill 35 °F
Dew Point 31 °F
Humidity 77%
Rainfall 0.00 in
Snow Depth Not available.
7:13 AM 6:03 PM
New Moon, 1% visible
METAR KRBW 091315Z AUTO 24009KT 10SM CLR 04/00 A2986 RMK AO2

10-Day Weather Forecast

Almanac

Astronomy

Feb. 09, 2016 Rise Set
Actual Time
Civil Twilight
Nautical Twilight
Astronomical Twilight
Moon
Length of Visible Light
Length of Day
Tomorrow will be .
, % of the Moon is Illuminated

Today's Extremes

State Highs State Lows

Community

WunderPhotos

Upload Photos

1,891,591 photos uploaded!

WunderBlog® & News

Nearby

Air Quality

  Air Quality AQ Index Pollutant
Not available.

Snow Depth

Station Depth Elevation

Earthquake Activity

City Distance Mag. Time & Date
Minimum magnitude displayed is 2.5.

Coastal Water Temperatures

Place Temperature

Stations

Nearby Weather Stations

Station Location Temp. Windchill Dew Point Humidity Wind Precip. Elev Updated Type
                   

Watches & Warnings

Flood Warning
Issued: 8:35 PM EST Feb. 8, 2016 – National Weather Service

The Flood Warning continues for
the edisto river near Givhans Ferry.
* At 7 PM Monday the stage was 13.4 feet.
* Flood stage is 10.0 feet.
* Moderate flooding is occurring.
* Forecast, the river will rise to near 13.5 feet by early Tuesday
afternoon then begin a slow fall.
* At 13.0 feet, some homes near the end of happiness Lane are flooded.
Most homes and Cabins along the river between Canadys and Norman
Landing are accessible only by boat.


Lat... Lon 3304 8065 3311 8062 3308 8036 3286 8036
          3286 8045 3302 8044